Time;durP1;ratioP1;P1;durP2;ratioP2;P2;SDS_P1;SDS_P2;PMS_P1;PMS_P2;Temp;Humidity;BMP_temperature;BMP_pressure;BME280_temperature;BME280_humidity;BME280_pressure;Samples;Min_cycle;Max_cycle;Signal;HPM_P1;HPM_P2
2024/01/27 00:00:34;;;;;;;4.07;1.70;;;;;;;;;;6299224;22;19995;-80
2024/01/27 00:03:19;;;;;;;5.50;2.20;;;;;;;;;;6298779;22;19999;-81
2024/01/27 00:06:04;;;;;;;7.45;2.78;;;;;;;;;;6298253;22;20003;-81
2024/01/27 00:08:49;;;;;;;6.35;2.20;;;;;;;;;;6298726;22;20074;-80
2024/01/27 00:11:35;;;;;;;8.50;2.72;;;;;;;;;;6298741;22;20087;-80
2024/01/27 00:14:50;;;;;;;6.43;2.60;;;;;;;;;;6298682;22;20018;-81
2024/01/27 00:17:35;;;;;;;4.72;2.35;;;;;;;;;;6296575;22;19995;-81
2024/01/27 00:20:20;;;;;;;5.82;2.40;;;;;;;;;;6298814;22;20007;-80
2024/01/27 00:23:06;;;;;;;6.90;2.17;;;;;;;;;;6298257;22;20014;-80
2024/01/27 00:25:51;;;;;;;5.05;1.90;;;;;;;;;;6296125;22;20005;-80
2024/01/27 00:28:36;;;;;;;4.80;2.22;;;;;;;;;;6298411;22;20082;-79
2024/01/27 00:31:22;;;;;;;3.53;2.17;;;;;;;;;;6296182;22;20360;-80
2024/01/27 00:34:07;;;;;;;5.07;2.10;;;;;;;;;;6297505;22;20325;-80
2024/01/27 00:36:52;;;;;;;6.13;2.10;;;;;;;;;;6299760;22;20416;-80
2024/01/27 00:39:37;;;;;;;4.07;2.10;;;;;;;;;;6297084;22;20168;-79
2024/01/27 00:42:24;;;;;;;6.22;2.38;;;;;;;;;;6297044;22;19999;-79
2024/01/27 00:45:09;;;;;;;3.90;2.17;;;;;;;;;;6298843;22;20436;-81
2024/01/27 00:47:54;;;;;;;4.88;2.45;;;;;;;;;;6296677;22;20114;-80
2024/01/27 00:50:39;;;;;;;4.88;2.45;;;;;;;;;;6298898;22;19995;-80
2024/01/27 00:53:25;;;;;;;5.07;2.13;;;;;;;;;;6298562;22;20003;-81
2024/01/27 00:56:10;;;;;;;4.20;1.98;;;;;;;;;;6297871;22;19999;-80
2024/01/27 00:58:55;;;;;;;7.30;2.33;;;;;;;;;;6298470;22;19999;-80
2024/01/27 01:01:40;;;;;;;6.53;2.30;;;;;;;;;;6297545;22;20003;-80
2024/01/27 01:04:25;;;;;;;5.15;2.40;;;;;;;;;;6298966;22;20074;-81
2024/01/27 01:07:11;;;;;;;6.57;2.00;;;;;;;;;;6296923;22;20060;-80
2024/01/27 01:09:56;;;;;;;4.85;2.25;;;;;;;;;;6298067;22;20003;-81
2024/01/27 01:12:41;;;;;;;7.45;2.40;;;;;;;;;;6297058;22;20486;-80
2024/01/27 01:15:26;;;;;;;9.70;2.28;;;;;;;;;;6298004;22;19995;-80
2024/01/27 01:18:12;;;;;;;7.38;2.13;;;;;;;;;;6298478;22;20006;-80
2024/01/27 01:20:57;;;;;;;4.63;2.72;;;;;;;;;;6298519;22;20064;-80
2024/01/27 01:23:42;;;;;;;5.70;2.00;;;;;;;;;;6298610;22;20565;-80
2024/01/27 01:26:27;;;;;;;5.45;2.15;;;;;;;;;;6296870;22;19992;-80
2024/01/27 01:29:13;;;;;;;10.65;3.30;;;;;;;;;;6298371;22;19999;-80
2024/01/27 01:31:58;;;;;;;9.35;2.65;;;;;;;;;;6297990;22;20545;-80
2024/01/27 01:34:45;;;;;;;8.23;2.58;;;;;;;;;;6297838;22;20478;-79
2024/01/27 01:37:30;;;;;;;9.63;3.25;;;;;;;;;;6298396;22;20194;-80
2024/01/27 01:40:16;;;;;;;7.10;2.60;;;;;;;;;;6298275;22;20007;-80
2024/01/27 01:43:01;;;;;;;6.13;2.30;;;;;;;;;;6295497;22;20355;-79
2024/01/27 01:45:46;;;;;;;9.63;2.30;;;;;;;;;;6298358;22;20054;-81
2024/01/27 01:48:32;;;;;;;5.43;2.05;;;;;;;;;;6297851;22;20076;-80
2024/01/27 01:51:17;;;;;;;7.53;3.08;;;;;;;;;;6297568;22;20010;-82
2024/01/27 01:54:02;;;;;;;8.85;3.30;;;;;;;;;;6298558;22;20003;-81
2024/01/27 01:56:48;;;;;;;5.88;2.70;;;;;;;;;;6298687;22;19995;-81
2024/01/27 01:59:34;;;;;;;4.18;2.35;;;;;;;;;;6297857;22;20019;-81
2024/01/27 02:02:19;;;;;;;5.40;1.80;;;;;;;;;;6296084;22;20386;-81
2024/01/27 02:05:04;;;;;;;9.23;1.92;;;;;;;;;;6297999;22;19996;-81
2024/01/27 02:07:50;;;;;;;4.97;1.75;;;;;;;;;;6298178;22;20051;-80
2024/01/27 02:10:38;;;;;;;3.35;1.83;;;;;;;;;;6297581;22;20329;-80
2024/01/27 02:13:23;;;;;;;4.93;2.10;;;;;;;;;;6295464;22;20196;-80
2024/01/27 02:16:09;;;;;;;3.95;2.40;;;;;;;;;;6297685;22;20434;-80
2024/01/27 02:18:54;;;;;;;4.25;2.50;;;;;;;;;;6295037;22;20006;-80
2024/01/27 02:21:39;;;;;;;5.60;1.92;;;;;;;;;;6297291;22;20046;-80
2024/01/27 02:24:24;;;;;;;3.85;2.03;;;;;;;;;;6297421;22;20007;-79
2024/01/27 02:27:09;;;;;;;5.13;1.55;;;;;;;;;;6297992;22;20006;-79
2024/01/27 02:29:55;;;;;;;5.90;1.98;;;;;;;;;;6297453;22;20078;-80
2024/01/27 02:32:40;;;;;;;4.72;1.98;;;;;;;;;;6295151;22;19999;-80
2024/01/27 02:35:25;;;;;;;4.50;1.83;;;;;;;;;;6297998;22;20291;-80
2024/01/27 02:38:10;;;;;;;5.00;1.88;;;;;;;;;;6298142;22;20080;-80
2024/01/27 02:40:56;;;;;;;3.78;2.00;;;;;;;;;;6292077;22;20003;-80
2024/01/27 02:43:41;;;;;;;6.90;2.22;;;;;;;;;;6294932;22;20007;-79
2024/01/27 02:46:26;;;;;;;7.97;1.92;;;;;;;;;;6273998;22;19991;-80
2024/01/27 02:49:12;;;;;;;2.90;1.40;;;;;;;;;;6297540;22;20006;-80
2024/01/27 02:51:57;;;;;;;6.97;2.15;;;;;;;;;;6297741;22;20456;-79
2024/01/27 02:54:42;;;;;;;6.68;2.00;;;;;;;;;;6297298;22;20317;-79
2024/01/27 02:57:27;;;;;;;4.05;1.58;;;;;;;;;;6297612;22;19999;-79
2024/01/27 03:00:13;;;;;;;5.45;1.73;;;;;;;;;;6291753;22;19999;-81
2024/01/27 03:02:58;;;;;;;7.22;1.75;;;;;;;;;;6301925;22;20455;-80
2024/01/27 03:05:44;;;;;;;3.60;2.20;;;;;;;;;;6301139;22;20003;-81
2024/01/27 03:08:29;;;;;;;6.90;2.50;;;;;;;;;;6298955;22;20003;-80
2024/01/27 03:11:14;;;;;;;6.97;2.75;;;;;;;;;;6301773;22;20007;-81
2024/01/27 03:13:59;;;;;;;5.35;2.60;;;;;;;;;;6301284;22;20015;-81
2024/01/27 03:16:45;;;;;;;6.28;2.40;;;;;;;;;;6300508;22;20007;-82
2024/01/27 03:19:30;;;;;;;6.22;2.60;;;;;;;;;;6301699;22;20057;-81
2024/01/27 03:22:15;;;;;;;6.80;2.03;;;;;;;;;;6301610;22;19995;-80
2024/01/27 03:25:01;;;;;;;4.43;2.00;;;;;;;;;;6301036;22;20007;-82
2024/01/27 03:27:46;;;;;;;3.72;1.67;;;;;;;;;;6301643;22;20075;-80
2024/01/27 03:30:31;;;;;;;5.88;2.60;;;;;;;;;;6300930;22;20033;-80
2024/01/27 03:33:16;;;;;;;4.93;1.50;;;;;;;;;;6301438;22;20072;-80
2024/01/27 03:36:01;;;;;;;8.82;2.25;;;;;;;;;;6297848;22;19999;-81
2024/01/27 03:38:47;;;;;;;4.65;2.00;;;;;;;;;;6301391;22;19995;-82
2024/01/27 03:41:32;;;;;;;5.30;2.17;;;;;;;;;;6301518;22;20074;-81
2024/01/27 03:44:17;;;;;;;6.57;2.35;;;;;;;;;;6301261;22;19998;-81
2024/01/27 03:47:03;;;;;;;5.57;2.35;;;;;;;;;;6301632;22;19991;-80
2024/01/27 03:49:48;;;;;;;7.25;2.80;;;;;;;;;;6278143;22;19999;-81
2024/01/27 03:52:33;;;;;;;4.85;1.92;;;;;;;;;;6301239;22;19999;-80
2024/01/27 03:55:18;;;;;;;6.22;2.17;;;;;;;;;;6298628;22;20000;-80
2024/01/27 03:58:04;;;;;;;5.75;2.15;;;;;;;;;;6300821;22;20027;-80
2024/01/27 04:00:49;;;;;;;8.10;2.17;;;;;;;;;;6301579;22;19998;-80
2024/01/27 04:03:34;;;;;;;5.25;1.95;;;;;;;;;;6298368;22;20009;-80
2024/01/27 04:06:20;;;;;;;4.00;2.47;;;;;;;;;;6298390;22;20082;-80
2024/01/27 04:09:08;;;;;;;6.28;1.90;;;;;;;;;;6293850;22;20092;-80
2024/01/27 04:11:53;;;;;;;6.63;1.92;;;;;;;;;;6293822;22;20090;-80
2024/01/27 04:14:39;;;;;;;7.70;2.35;;;;;;;;;;6274440;22;20078;-81
2024/01/27 04:17:24;;;;;;;5.85;1.85;;;;;;;;;;6276229;22;20066;-82
2024/01/27 04:20:09;;;;;;;4.70;2.75;;;;;;;;;;6275902;22;19991;-81
2024/01/27 04:22:55;;;;;;;8.23;2.30;;;;;;;;;;6274971;22;20010;-80
2024/01/27 04:25:41;;;;;;;4.70;2.00;;;;;;;;;;6276058;22;20003;-81
2024/01/27 04:28:26;;;;;;;6.07;2.00;;;;;;;;;;6275425;22;20046;-82
2024/01/27 04:31:11;;;;;;;7.18;1.80;;;;;;;;;;6273801;22;20014;-81
2024/01/27 04:33:57;;;;;;;3.85;2.00;;;;;;;;;;6273904;22;19999;-81
2024/01/27 04:36:42;;;;;;;5.53;1.92;;;;;;;;;;6276904;22;20049;-81
2024/01/27 04:39:27;;;;;;;7.38;2.10;;;;;;;;;;6274857;22;19999;-81
2024/01/27 04:42:12;;;;;;;6.00;2.15;;;;;;;;;;6277923;22;20431;-81
2024/01/27 04:44:58;;;;;;;6.60;2.20;;;;;;;;;;6276925;22;20007;-81
2024/01/27 04:47:43;;;;;;;4.18;2.42;;;;;;;;;;6255379;22;19999;-79
2024/01/27 04:50:28;;;;;;;5.35;2.63;;;;;;;;;;6277305;22;20006;-81
2024/01/27 04:53:13;;;;;;;8.73;4.15;;;;;;;;;;6277234;22;20006;-81
2024/01/27 04:55:58;;;;;;;6.25;2.13;;;;;;;;;;6276993;22;19995;-80
2024/01/27 04:58:44;;;;;;;8.07;2.28;;;;;;;;;;6277077;22;20038;-80
2024/01/27 05:01:29;;;;;;;6.55;2.42;;;;;;;;;;6277503;22;19996;-81
2024/01/27 05:04:14;;;;;;;4.65;2.08;;;;;;;;;;6276288;22;20042;-80
2024/01/27 05:06:59;;;;;;;3.70;1.83;;;;;;;;;;6276220;22;20002;-80
2024/01/27 05:09:44;;;;;;;7.15;2.45;;;;;;;;;;6255868;22;20053;-80
2024/01/27 05:12:30;;;;;;;4.07;2.30;;;;;;;;;;6276188;22;20090;-80
2024/01/27 05:15:15;;;;;;;6.05;2.30;;;;;;;;;;6297410;22;20094;-80
2024/01/27 05:18:00;;;;;;;6.13;1.90;;;;;;;;;;6297932;22;19995;-80
2024/01/27 05:20:46;;;;;;;3.92;1.80;;;;;;;;;;6298220;22;20444;-79
2024/01/27 05:23:31;;;;;;;8.13;2.10;;;;;;;;;;6276169;22;20011;-80
2024/01/27 05:26:16;;;;;;;7.80;2.35;;;;;;;;;;6296287;22;19999;-79
2024/01/27 05:29:02;;;;;;;4.95;1.83;;;;;;;;;;6302567;22;20035;-82
2024/01/27 05:31:47;;;;;;;7.82;2.00;;;;;;;;;;6305556;22;20348;-81
2024/01/27 05:34:33;;;;;;;3.95;1.85;;;;;;;;;;6299891;22;19999;-82
2024/01/27 05:37:18;;;;;;;4.15;2.17;;;;;;;;;;6302888;22;20006;-81
2024/01/27 05:40:03;;;;;;;5.20;2.40;;;;;;;;;;6307226;22;20494;-81
2024/01/27 05:42:50;;;;;;;5.10;1.50;;;;;;;;;;6308885;22;20078;-81
2024/01/27 05:45:35;;;;;;;7.80;2.83;;;;;;;;;;6293310;22;20078;-82
2024/01/27 05:48:20;;;;;;;6.20;1.80;;;;;;;;;;6296315;22;20031;-80
2024/01/27 05:51:05;;;;;;;8.07;2.20;;;;;;;;;;6294221;22;20006;-80
2024/01/27 05:53:51;;;;;;;7.00;2.42;;;;;;;;;;6298543;22;20011;-81
2024/01/27 05:56:36;;;;;;;9.18;2.28;;;;;;;;;;6297526;22;20002;-81
2024/01/27 05:59:21;;;;;;;4.60;2.13;;;;;;;;;;6298603;22;20096;-80
2024/01/27 06:02:06;;;;;;;7.40;2.67;;;;;;;;;;6295284;22;20344;-80
2024/01/27 06:04:52;;;;;;;6.07;2.03;;;;;;;;;;6297267;22;19999;-81
2024/01/27 06:07:38;;;;;;;5.53;2.00;;;;;;;;;;6297479;22;20090;-79
2024/01/27 06:10:24;;;;;;;6.88;2.25;;;;;;;;;;6295359;22;19995;-81
2024/01/27 06:13:09;;;;;;;6.07;1.98;;;;;;;;;;6268691;22;20007;-80
2024/01/27 06:15:55;;;;;;;9.57;2.58;;;;;;;;;;6297458;22;19992;-80
2024/01/27 06:18:40;;;;;;;5.78;2.28;;;;;;;;;;6295750;22;20053;-80
2024/01/27 06:21:25;;;;;;;4.13;2.00;;;;;;;;;;6294819;22;20006;-79
2024/01/27 06:24:10;;;;;;;13.90;3.20;;;;;;;;;;6295600;22;20038;-79
2024/01/27 06:26:56;;;;;;;5.32;2.25;;;;;;;;;;6292100;22;20027;-79
2024/01/27 06:29:42;;;;;;;4.32;2.33;;;;;;;;;;6294511;22;19995;-79
2024/01/27 06:32:27;;;;;;;6.45;2.10;;;;;;;;;;6294849;22;20003;-78
2024/01/27 06:35:12;;;;;;;6.63;2.47;;;;;;;;;;6290459;22;19995;-79
2024/01/27 06:37:58;;;;;;;10.63;2.60;;;;;;;;;;6292265;22;20055;-78
2024/01/27 06:40:43;;;;;;;5.57;2.20;;;;;;;;;;6295620;22;19996;-80
2024/01/27 06:43:29;;;;;;;5.43;2.40;;;;;;;;;;6295513;22;20435;-80
2024/01/27 06:46:14;;;;;;;5.50;2.58;;;;;;;;;;6295281;22;20008;-81
2024/01/27 06:48:59;;;;;;;6.22;3.17;;;;;;;;;;6295491;22;20003;-81
2024/01/27 06:51:45;;;;;;;5.95;2.33;;;;;;;;;;6296938;22;20710;-80
2024/01/27 06:54:30;;;;;;;7.47;2.30;;;;;;;;;;6293045;22;20458;-80
2024/01/27 06:57:22;;;;;;;5.95;2.00;;;;;;;;;;6295933;22;19995;-80
2024/01/27 07:00:08;;;;;;;11.65;2.70;;;;;;;;;;6296987;22;20057;-81
2024/01/27 07:02:54;;;;;;;10.77;2.75;;;;;;;;;;6297636;22;20003;-79
2024/01/27 07:05:40;;;;;;;5.70;2.28;;;;;;;;;;6296200;22;20086;-80
2024/01/27 07:08:26;;;;;;;9.88;2.67;;;;;;;;;;6297521;22;20335;-81
2024/01/27 07:11:12;;;;;;;7.22;2.22;;;;;;;;;;6297022;22;20007;-82
2024/01/27 07:13:58;;;;;;;11.80;1.98;;;;;;;;;;6298409;22;20047;-80
2024/01/27 07:16:43;;;;;;;12.02;2.85;;;;;;;;;;6298011;22;19995;-80
2024/01/27 07:19:29;;;;;;;6.25;2.42;;;;;;;;;;6295489;22;20086;-81
2024/01/27 07:22:14;;;;;;;8.25;2.50;;;;;;;;;;6298520;22;20003;-81
2024/01/27 07:24:59;;;;;;;6.43;2.13;;;;;;;;;;6296860;22;20327;-80
2024/01/27 07:27:45;;;;;;;11.15;2.47;;;;;;;;;;6296717;22;19999;-81
2024/01/27 07:30:31;;;;;;;5.72;2.53;;;;;;;;;;6297805;22;20003;-81
2024/01/27 07:33:16;;;;;;;6.18;2.65;;;;;;;;;;6298900;22;20455;-80
2024/01/27 07:36:01;;;;;;;8.75;2.80;;;;;;;;;;6298564;22;19995;-81
2024/01/27 07:38:47;;;;;;;9.30;2.13;;;;;;;;;;6298508;22;20058;-81
2024/01/27 07:41:32;;;;;;;11.13;3.03;;;;;;;;;;6297116;22;20035;-81
2024/01/27 07:44:18;;;;;;;7.22;2.53;;;;;;;;;;6291698;22;19996;-79
2024/01/27 07:47:03;;;;;;;8.93;3.00;;;;;;;;;;6297973;22;20009;-80
2024/01/27 07:49:48;;;;;;;5.25;2.10;;;;;;;;;;6298371;22;19995;-80
2024/01/27 07:52:34;;;;;;;8.18;3.50;;;;;;;;;;6297714;22;20000;-81
2024/01/27 07:55:19;;;;;;;7.03;2.50;;;;;;;;;;6298110;22;20053;-81
2024/01/27 07:58:05;;;;;;;7.30;3.00;;;;;;;;;;6298445;22;19995;-81
2024/01/27 08:00:50;;;;;;;8.18;2.80;;;;;;;;;;6297926;22;20381;-83
2024/01/27 08:03:36;;;;;;;7.65;3.50;;;;;;;;;;6296799;22;20411;-79
2024/01/27 08:06:28;;;;;;;13.60;4.25;;;;;;;;;;6297243;22;20246;-80
2024/01/27 08:09:13;;;;;;;7.30;4.28;;;;;;;;;;6297802;22;19999;-79
2024/01/27 08:11:59;;;;;;;8.57;4.20;;;;;;;;;;6298747;22;20022;-81
2024/01/27 08:14:44;;;;;;;11.40;3.47;;;;;;;;;;6300391;22;20018;-82
2024/01/27 08:17:29;;;;;;;7.30;2.95;;;;;;;;;;6299457;22;20034;-84
2024/01/27 08:20:14;;;;;;;10.90;3.53;;;;;;;;;;6302186;22;20034;-83
2024/01/27 08:22:59;;;;;;;9.68;3.90;;;;;;;;;;6301359;22;19999;-83
2024/01/27 08:25:47;;;;;;;13.90;4.75;;;;;;;;;;6299065;22;20014;-83
2024/01/27 08:28:32;;;;;;;7.25;3.75;;;;;;;;;;6301692;22;20007;-84
2024/01/27 08:31:17;;;;;;;10.35;2.90;;;;;;;;;;6298029;22;20086;-84
2024/01/27 08:34:02;;;;;;;13.93;4.07;;;;;;;;;;6297636;22;20031;-83
2024/01/27 08:36:48;;;;;;;7.20;4.45;;;;;;;;;;6293757;22;20007;-85
2024/01/27 08:39:33;;;;;;;10.13;3.92;;;;;;;;;;6300002;22;20003;-85
2024/01/27 08:42:18;;;;;;;9.82;4.25;;;;;;;;;;6297664;22;20502;-84
2024/01/27 08:45:04;;;;;;;7.57;3.55;;;;;;;;;;6295787;22;20022;-81
2024/01/27 08:47:49;;;;;;;11.63;4.72;;;;;;;;;;6296738;22;20044;-81
2024/01/27 08:50:34;;;;;;;14.93;3.85;;;;;;;;;;6298001;22;20002;-81
2024/01/27 08:53:19;;;;;;;7.55;3.60;;;;;;;;;;6296190;22;20000;-83
2024/01/27 08:56:05;;;;;;;7.20;3.42;;;;;;;;;;6295673;22;20000;-82
2024/01/27 08:58:51;;;;;;;10.27;3.40;;;;;;;;;;6294623;22;19995;-80
2024/01/27 09:01:36;;;;;;;11.98;4.10;;;;;;;;;;6295377;22;20074;-80
2024/01/27 09:04:21;;;;;;;8.70;3.17;;;;;;;;;;6294829;22;19999;-79
2024/01/27 09:07:06;;;;;;;9.82;3.45;;;;;;;;;;6297600;22;20021;-80
2024/01/27 09:09:51;;;;;;;9.50;3.67;;;;;;;;;;6298331;22;20011;-80
2024/01/27 09:12:36;;;;;;;8.65;3.30;;;;;;;;;;6297430;22;20050;-82
2024/01/27 09:15:22;;;;;;;10.63;4.47;;;;;;;;;;6298430;22;19995;-78
2024/01/27 09:18:07;;;;;;;10.20;3.70;;;;;;;;;;6298091;22;20390;-82
2024/01/27 09:20:52;;;;;;;12.02;4.25;;;;;;;;;;6298295;22;20356;-81
2024/01/27 09:23:37;;;;;;;10.30;3.33;;;;;;;;;;6297604;22;20022;-81
2024/01/27 09:26:23;;;;;;;10.07;4.75;;;;;;;;;;6296524;22;20007;-81
2024/01/27 09:29:09;;;;;;;11.90;3.78;;;;;;;;;;6297800;22;19999;-81
2024/01/27 09:31:54;;;;;;;11.02;3.97;;;;;;;;;;6297639;22;20306;-81
2024/01/27 09:34:39;;;;;;;11.02;3.70;;;;;;;;;;6298101;22;20002;-83
2024/01/27 09:37:25;;;;;;;8.85;4.15;;;;;;;;;;6299225;22;19991;-85
2024/01/27 09:40:21;;;;;;;8.93;3.70;;;;;;;;;;6299029;22;20002;-82
2024/01/27 09:43:06;;;;;;;12.63;6.32;;;;;;;;;;6294354;22;20049;-81
2024/01/27 09:45:51;;;;;;;9.27;4.50;;;;;;;;;;6297058;22;20435;-81
2024/01/27 09:48:37;;;;;;;7.25;3.47;;;;;;;;;;6297913;22;20551;-82
2024/01/27 09:51:22;;;;;;;12.13;4.47;;;;;;;;;;6298332;22;20560;-81
2024/01/27 09:54:08;;;;;;;11.25;3.75;;;;;;;;;;6297333;22;20452;-81
2024/01/27 09:56:54;;;;;;;10.25;5.10;;;;;;;;;;6298738;22;20374;-82
2024/01/27 09:59:42;;;;;;;12.75;4.60;;;;;;;;;;6275872;22;20041;-81
2024/01/27 10:02:27;;;;;;;8.82;4.10;;;;;;;;;;6296874;22;20360;-81
2024/01/27 10:05:12;;;;;;;10.60;4.88;;;;;;;;;;6294507;22;20006;-80
2024/01/27 10:08:01;;;;;;;11.05;4.60;;;;;;;;;;6299241;22;20021;-80
2024/01/27 10:10:49;;;;;;;10.73;4.38;;;;;;;;;;6295714;22;20225;-79
2024/01/27 10:13:35;;;;;;;13.55;4.40;;;;;;;;;;6296002;22;20011;-78
2024/01/27 10:16:23;;;;;;;10.85;4.93;;;;;;;;;;6295029;22;19995;-78
2024/01/27 10:19:11;;;;;;;10.10;4.50;;;;;;;;;;6297150;22;20760;-85
2024/01/27 10:22:02;;;;;;;10.90;4.53;;;;;;;;;;6299680;22;20003;-84
2024/01/27 10:24:47;;;;;;;12.90;5.03;;;;;;;;;;6299652;22;20042;-84
2024/01/27 10:27:32;;;;;;;14.00;4.78;;;;;;;;;;6297602;22;20370;-87
2024/01/27 10:30:18;;;;;;;7.90;3.97;;;;;;;;;;6297652;22;20002;-84
2024/01/27 10:33:04;;;;;;;13.23;3.78;;;;;;;;;;6299654;22;19999;-83
2024/01/27 10:35:57;;;;;;;9.90;3.72;;;;;;;;;;6299860;22;19996;-81
2024/01/27 10:38:42;;;;;;;10.68;3.75;;;;;;;;;;6298704;22;19995;-82
2024/01/27 10:41:28;;;;;;;11.35;4.00;;;;;;;;;;6298325;22;19992;-80
2024/01/27 10:44:14;;;;;;;15.50;3.88;;;;;;;;;;6296908;22;20023;-79
2024/01/27 10:47:03;;;;;;;12.20;3.85;;;;;;;;;;6297618;22;20077;-78
2024/01/27 10:49:48;;;;;;;10.15;4.25;;;;;;;;;;6298073;22;20002;-80
2024/01/27 10:52:37;;;;;;;9.98;3.78;;;;;;;;;;6295836;22;20011;-80
2024/01/27 10:55:22;;;;;;;7.10;3.03;;;;;;;;;;6293867;22;20003;-79
2024/01/27 10:58:08;;;;;;;9.25;3.25;;;;;;;;;;6296461;22;20394;-79
2024/01/27 11:00:53;;;;;;;9.68;3.30;;;;;;;;;;6295236;22;19995;-79
2024/01/27 11:03:41;;;;;;;8.90;3.63;;;;;;;;;;6295174;22;20002;-78
2024/01/27 11:06:29;;;;;;;16.35;3.90;;;;;;;;;;6299183;22;20007;-79
2024/01/27 11:09:14;;;;;;;8.02;3.40;;;;;;;;;;6293796;22;20034;-79
2024/01/27 11:12:01;;;;;;;11.65;3.95;;;;;;;;;;6296474;22;20241;-78
2024/01/27 11:14:47;;;;;;;11.13;3.60;;;;;;;;;;6297711;22;19998;-78
2024/01/27 11:17:42;;;;;;;13.50;3.70;;;;;;;;;;6297825;22;19999;-79
2024/01/27 11:20:27;;;;;;;10.52;4.20;;;;;;;;;;6298023;22;20090;-79
2024/01/27 11:23:14;;;;;;;10.85;3.63;;;;;;;;;;6297849;22;20379;-79
2024/01/27 11:26:03;;;;;;;13.23;4.13;;;;;;;;;;6296883;22;20006;-79
2024/01/27 11:28:49;;;;;;;9.70;4.15;;;;;;;;;;6294151;22;20511;-78
2024/01/27 11:31:34;;;;;;;10.73;3.97;;;;;;;;;;6296869;22;20026;-78
2024/01/27 11:34:19;;;;;;;9.43;3.60;;;;;;;;;;6297111;22;20305;-78
2024/01/27 11:37:14;;;;;;;17.60;5.25;;;;;;;;;;6298461;22;19995;-78
2024/01/27 11:40:04;;;;;;;10.68;4.28;;;;;;;;;;6297518;22;20014;-80
2024/01/27 11:42:59;;;;;;;11.63;3.67;;;;;;;;;;6298242;22;20026;-84
2024/01/27 11:45:54;;;;;;;10.00;3.40;;;;;;;;;;6301130;22;19999;-78
2024/01/27 11:48:41;;;;;;;6.13;3.10;;;;;;;;;;6298554;22;20074;-79
2024/01/27 11:51:28;;;;;;;10.95;4.00;;;;;;;;;;6294663;22;20023;-78
2024/01/27 11:54:17;;;;;;;8.13;3.30;;;;;;;;;;6294870;22;20004;-78
2024/01/27 11:57:02;;;;;;;8.43;4.07;;;;;;;;;;6298739;22;20007;-77
2024/01/27 11:59:47;;;;;;;13.20;5.18;;;;;;;;;;6292907;22;20033;-78
2024/01/27 12:02:32;;;;;;;10.77;3.65;;;;;;;;;;6297327;22;20030;-82
2024/01/27 12:05:18;;;;;;;8.07;3.55;;;;;;;;;;6299143;22;19998;-78
2024/01/27 12:08:03;;;;;;;8.93;4.05;;;;;;;;;;6295553;22;20006;-77
2024/01/27 12:10:49;;;;;;;9.52;3.17;;;;;;;;;;6293309;22;20050;-77
2024/01/27 12:13:34;;;;;;;5.65;2.92;;;;;;;;;;6298084;22;20016;-80
2024/01/27 12:16:21;;;;;;;10.82;3.53;;;;;;;;;;6298487;22;19999;-81
2024/01/27 12:19:09;;;;;;;13.88;4.43;;;;;;;;;;6299092;22;19999;-79
2024/01/27 12:21:54;;;;;;;7.05;3.58;;;;;;;;;;6299108;22;20528;-79
2024/01/27 12:24:40;;;;;;;10.60;3.60;;;;;;;;;;6297399;22;20080;-81
2024/01/27 12:27:27;;;;;;;8.50;3.92;;;;;;;;;;6295504;22;20010;-82
2024/01/27 12:34:09;;;;;;;9.85;3.63;;;;;;;;;;5107275;27;20398;-80
2024/01/27 12:36:55;;;;;;;7.47;3.28;;;;;;;;;;5086326;28;20036;-80
2024/01/27 12:39:41;;;;;;;15.43;4.80;;;;;;;;;;5094667;28;20500;-80
2024/01/27 12:42:27;;;;;;;8.80;3.70;;;;;;;;;;5089914;28;20081;-79
2024/01/27 12:45:12;;;;;;;7.15;3.40;;;;;;;;;;5085883;28;20365;-78
2024/01/27 12:47:59;;;;;;;13.65;5.20;;;;;;;;;;5089178;28;20069;-80
2024/01/27 12:50:44;;;;;;;10.55;4.15;;;;;;;;;;5090435;28;20303;-79
2024/01/27 12:53:32;;;;;;;8.05;3.63;;;;;;;;;;5090619;28;20040;-80
2024/01/27 12:56:17;;;;;;;11.52;3.60;;;;;;;;;;5085792;28;20023;-80
2024/01/27 12:59:03;;;;;;;9.50;3.78;;;;;;;;;;5088024;28;20106;-82
2024/01/27 13:01:48;;;;;;;10.00;3.35;;;;;;;;;;5093004;28;20020;-79
2024/01/27 13:04:33;;;;;;;11.93;4.00;;;;;;;;;;5088075;28;20030;-81
2024/01/27 13:07:18;;;;;;;10.38;3.97;;;;;;;;;;5099763;28;20020;-81
2024/01/27 13:10:03;;;;;;;8.55;3.40;;;;;;;;;;5093446;28;20019;-82
2024/01/27 13:12:49;;;;;;;15.05;3.92;;;;;;;;;;5073361;28;20029;-82
2024/01/27 13:15:34;;;;;;;14.88;4.65;;;;;;;;;;5073039;28;20066;-79
2024/01/27 13:18:19;;;;;;;8.32;3.70;;;;;;;;;;5070919;28;20027;-81
2024/01/27 13:21:05;;;;;;;8.77;3.97;;;;;;;;;;5065018;28;20085;-81
2024/01/27 13:23:52;;;;;;;8.70;3.20;;;;;;;;;;5056140;28;20035;-81
2024/01/27 13:26:38;;;;;;;7.97;3.50;;;;;;;;;;5066450;28;20029;-80
2024/01/27 13:29:23;;;;;;;8.32;3.05;;;;;;;;;;5064242;28;20407;-82
2024/01/27 13:32:09;;;;;;;13.02;6.22;;;;;;;;;;5048073;28;20091;-82
2024/01/27 13:34:54;;;;;;;9.32;3.67;;;;;;;;;;5062216;28;20035;-80
2024/01/27 13:37:39;;;;;;;6.55;3.63;;;;;;;;;;5068023;28;20085;-80
2024/01/27 13:40:24;;;;;;;7.78;2.70;;;;;;;;;;5066135;28;20475;-80
2024/01/27 13:43:10;;;;;;;10.18;3.30;;;;;;;;;;5067264;28;20036;-82
2024/01/27 13:45:55;;;;;;;10.18;3.53;;;;;;;;;;5046506;28;20472;-81
2024/01/27 13:48:44;;;;;;;6.68;2.47;;;;;;;;;;5056301;28;20043;-79
2024/01/27 13:51:29;;;;;;;6.97;3.00;;;;;;;;;;5049028;28;20028;-79
2024/01/27 13:54:15;;;;;;;9.52;2.95;;;;;;;;;;5053380;28;20637;-79
2024/01/27 13:57:01;;;;;;;9.00;3.08;;;;;;;;;;5047178;28;20173;-79
2024/01/27 13:59:46;;;;;;;5.88;2.53;;;;;;;;;;5045095;28;20046;-79
2024/01/27 14:02:31;;;;;;;8.25;3.05;;;;;;;;;;5057646;28;20335;-78
2024/01/27 14:05:17;;;;;;;11.27;3.20;;;;;;;;;;5056082;28;20035;-79
2024/01/27 14:08:04;;;;;;;9.68;3.45;;;;;;;;;;5058086;28;20324;-82
2024/01/27 14:10:52;;;;;;;11.45;3.45;;;;;;;;;;5060013;28;20099;-83
2024/01/27 14:13:37;;;;;;;6.68;2.63;;;;;;;;;;5041790;28;20433;-80
2024/01/27 14:16:23;;;;;;;6.50;2.20;;;;;;;;;;5053672;28;20070;-82
2024/01/27 14:19:08;;;;;;;5.07;2.10;;;;;;;;;;5051905;28;20017;-83
2024/01/27 14:21:53;;;;;;;9.02;2.53;;;;;;;;;;5039311;28;20036;-83
2024/01/27 14:24:39;;;;;;;7.43;3.75;;;;;;;;;;5050175;28;20029;-82
2024/01/27 14:27:27;;;;;;;7.43;2.80;;;;;;;;;;5045910;28;20024;-83
2024/01/27 14:30:13;;;;;;;11.75;4.53;;;;;;;;;;5053148;28;20028;-81
2024/01/27 14:32:58;;;;;;;7.40;2.42;;;;;;;;;;5046006;28;20119;-85
2024/01/27 14:35:43;;;;;;;5.82;2.40;;;;;;;;;;5055105;28;20103;-84
2024/01/27 14:38:29;;;;;;;8.68;2.83;;;;;;;;;;5064576;28;20074;-85
2024/01/27 14:41:14;;;;;;;9.43;3.08;;;;;;;;;;5052455;28;20032;-84
2024/01/27 14:43:59;;;;;;;8.02;3.63;;;;;;;;;;5052872;28;20032;-86
2024/01/27 14:46:45;;;;;;;8.68;4.07;;;;;;;;;;5057573;28;20030;-86
2024/01/27 14:49:30;;;;;;;12.05;3.88;;;;;;;;;;5046818;28;20020;-84
2024/01/27 14:52:15;;;;;;;11.32;4.47;;;;;;;;;;5059949;28;20029;-84
2024/01/27 14:55:00;;;;;;;13.10;3.40;;;;;;;;;;5051445;28;20427;-84
2024/01/27 14:57:46;;;;;;;9.93;2.78;;;;;;;;;;5055471;28;20151;-83
2024/01/27 15:00:31;;;;;;;8.35;2.95;;;;;;;;;;5046885;28;20089;-85
2024/01/27 15:03:16;;;;;;;7.57;2.90;;;;;;;;;;5059166;28;20036;-84
2024/01/27 15:06:02;;;;;;;10.35;3.28;;;;;;;;;;5057579;28;20036;-84
2024/01/27 15:08:48;;;;;;;6.85;2.80;;;;;;;;;;5061309;28;20016;-83
2024/01/27 15:11:33;;;;;;;8.13;3.38;;;;;;;;;;5057646;28;20368;-84
2024/01/27 15:14:19;;;;;;;6.18;2.83;;;;;;;;;;5056114;28;20044;-85
2024/01/27 15:17:04;;;;;;;8.93;3.00;;;;;;;;;;5054288;28;20050;-84
2024/01/27 15:19:50;;;;;;;11.02;4.30;;;;;;;;;;5051843;28;20090;-85
2024/01/27 15:22:35;;;;;;;17.17;4.10;;;;;;;;;;5057643;28;20024;-81
2024/01/27 15:25:20;;;;;;;8.90;4.07;;;;;;;;;;5068162;28;20020;-84
2024/01/27 15:28:06;;;;;;;12.60;3.75;;;;;;;;;;5080508;28;20032;-81
2024/01/27 15:30:52;;;;;;;9.02;4.75;;;;;;;;;;5053964;28;20475;-80
2024/01/27 15:33:37;;;;;;;13.63;4.88;;;;;;;;;;5051390;28;20044;-80
2024/01/27 15:36:22;;;;;;;19.17;4.78;;;;;;;;;;5044877;28;20517;-82
2024/01/27 15:39:08;;;;;;;10.88;4.68;;;;;;;;;;5049838;28;20028;-81
2024/01/27 15:41:54;;;;;;;9.40;4.38;;;;;;;;;;5051415;28;20493;-81
2024/01/27 15:44:39;;;;;;;10.05;3.97;;;;;;;;;;5051108;28;20028;-81
2024/01/27 15:47:24;;;;;;;9.02;3.90;;;;;;;;;;5055208;28;20020;-80
2024/01/27 15:50:13;;;;;;;11.88;5.07;;;;;;;;;;5051902;28;20792;-81
2024/01/27 15:52:58;;;;;;;10.37;4.13;;;;;;;;;;5054889;28;20074;-80
2024/01/27 15:55:43;;;;;;;11.75;4.95;;;;;;;;;;5052790;28;20036;-81
2024/01/27 15:58:28;;;;;;;14.50;4.13;;;;;;;;;;5054000;28;20089;-81
2024/01/27 16:01:13;;;;;;;12.10;4.25;;;;;;;;;;5057214;28;20099;-83
2024/01/27 16:03:59;;;;;;;9.93;3.92;;;;;;;;;;5053472;28;20739;-80
2024/01/27 16:06:44;;;;;;;12.95;5.35;;;;;;;;;;5055560;28;20083;-82
2024/01/27 16:09:29;;;;;;;11.50;5.07;;;;;;;;;;5053381;28;20029;-82
2024/01/27 16:12:15;;;;;;;11.52;4.38;;;;;;;;;;5053930;28;20028;-83
2024/01/27 16:15:00;;;;;;;14.20;4.20;;;;;;;;;;5050863;28;20121;-84
2024/01/27 16:17:45;;;;;;;8.63;3.70;;;;;;;;;;5058657;28;20126;-81
2024/01/27 16:20:30;;;;;;;7.95;3.70;;;;;;;;;;5060627;28;20024;-81
2024/01/27 16:23:15;;;;;;;11.05;4.95;;;;;;;;;;5058956;28;20040;-82
2024/01/27 16:26:01;;;;;;;10.25;4.60;;;;;;;;;;5046637;28;20047;-83
2024/01/27 16:28:47;;;;;;;11.65;4.13;;;;;;;;;;5053517;28;20056;-82
2024/01/27 16:31:33;;;;;;;8.88;4.05;;;;;;;;;;5048849;28;20438;-82